Create Tblcommutelog Verified Points Advance Search
| # | Trip ID | Id Commuter | Trip Date | Trip Num | Current Lat | Current Lng | Delta Distance | Current Time | Activity | Activity Confidence | Current Speed | |
|---|---|---|---|---|---|---|---|---|---|---|---|---|
| 71201 | 250801_781963_16497804_0710 | 781963 | (not set) | (not set) | 38.9558723 | -76.6893262 | 16.4958 | 2025-08-01 07:33:49 | in_vehicle | 100 | 13.929743310057 | |
| 71202 | 250801_781963_16497804_0710 | 781963 | (not set) | (not set) | 38.9559517 | -76.6850331 | 16.2646 | 2025-08-01 07:33:37 | in_vehicle | 100 | 14.121970191422 | |
| 71203 | 250801_781963_16497804_0710 | 781963 | (not set) | (not set) | 38.9555419 | -76.7064507 | 17.4185 | 2025-08-01 07:34:37 | in_vehicle | 100 | 13.867157813799 | |
| 71204 | 250801_781963_16497804_0710 | 781963 | (not set) | (not set) | 38.9556055 | -76.7021585 | 17.1872 | 2025-08-01 07:34:25 | in_vehicle | 100 | 13.759868391642 | |
| 71205 | 250801_784718_16456978_0743 | 784718 | (not set) | (not set) | 39.135471297623 | -77.149913415354 | 17.9678 | 2025-08-01 08:14:26 | in_vehicle | 100 | 12.248875696264 | |
| 71206 | 250801_781963_16497804_0710 | 781963 | (not set) | (not set) | 38.9554559 | -76.7107094 | 17.6479 | 2025-08-01 07:34:49 | in_vehicle | 100 | 13.782220354592 | |
| 71207 | 250801_781963_16497804_0710 | 781963 | (not set) | (not set) | 38.9548302 | -76.7192136 | 18.1087 | 2025-08-01 07:35:13 | in_vehicle | 100 | 13.370944236323 | |
| 71208 | 250801_781963_16497804_0710 | 781963 | (not set) | (not set) | 38.9553226 | -76.714994 | 17.8789 | 2025-08-01 07:35:01 | in_vehicle | 100 | 13.817983495311 | |
| 71209 | 250801_781963_16497804_0710 | 781963 | (not set) | (not set) | 38.9533837 | -76.7318241 | 18.7982 | 2025-08-01 07:35:49 | in_vehicle | 100 | 13.867157813799 | |
| 71210 | 250801_781963_16497804_0710 | 781963 | (not set) | (not set) | 38.9539666 | -76.7233314 | 18.3383 | 2025-08-01 07:35:25 | in_vehicle | 100 | 14.063855087754 | |
| 71211 | 250801_781963_16497804_0710 | 781963 | (not set) | (not set) | 38.9535001 | -76.7275696 | 18.5689 | 2025-08-01 07:35:37 | in_vehicle | 100 | 13.710694073154 | |
| 71212 | 250801_781963_16497804_0710 | 781963 | (not set) | (not set) | 38.9529011 | -76.74475 | 19.4952 | 2025-08-01 07:36:25 | in_vehicle | 100 | 13.916332132288 | |
| 71213 | 250801_781963_16497804_0710 | 781963 | (not set) | (not set) | 38.9532355 | -76.7361034 | 19.0289 | 2025-08-01 07:36:01 | in_vehicle | 100 | 13.889509776749 | |
| 71214 | 250801_781963_16497804_0710 | 781963 | (not set) | (not set) | 38.953112 | -76.7404089 | 19.2609 | 2025-08-01 07:36:13 | in_vehicle | 100 | 13.902920954518 | |
| 71215 | 250801_781963_16497804_0710 | 781963 | (not set) | (not set) | 38.9498859 | -76.7523195 | 19.9538 | 2025-08-01 07:36:49 | in_vehicle | 100 | 13.987858413726 | |
| 71216 | 250801_781963_16497804_0710 | 781963 | (not set) | (not set) | 38.9482065 | -76.756056 | 20.186 | 2025-08-01 07:37:01 | in_vehicle | 100 | 13.8224538879 | |
| 71217 | 250801_781963_16497804_0710 | 781963 | (not set) | (not set) | 38.9515842 | -76.7486286 | 19.7231 | 2025-08-01 07:36:37 | in_vehicle | 100 | 13.728575643513 | |
| 71218 | 250801_781963_16497804_0710 | 781963 | (not set) | (not set) | 38.9458385 | -76.7639797 | 20.6457 | 2025-08-01 07:37:25 | in_vehicle | 100 | 13.809042710131 | |
| 71219 | 250801_781963_16497804_0710 | 781963 | (not set) | (not set) | 38.9466885 | -76.759849 | 20.4156 | 2025-08-01 07:37:13 | in_vehicle | 100 | 13.791161139771 | |
| 71220 | 250801_781963_16497804_0710 | 781963 | (not set) | (not set) | 38.945508 | -76.7682549 | 20.8771 | 2025-08-01 07:37:37 | in_vehicle | 100 | 13.813513102721 |